ADDS METAR Data INFO
IDs: Format: Raw Decoded Include TAF

Data at: 0559 UTC 25 Jun 2018

KCOM 250534Z AUTO 16014G21KT 10SM CLR 28/18 A2986 RMK AO2
KCOM 250514Z AUTO 15015G18KT 10SM CLR 29/18 A2987 RMK AO2
KCOM 250456Z AUTO 15012G17KT 10SM CLR 29/18 A2987 RMK AO2
KCOM 250436Z AUTO 15012KT 10SM CLR 30/17 A2987 RMK AO2
KCOM 250414Z AUTO 15015KT 10SM CLR 31/17 A2986 RMK AO2
KCOM 250354Z AUTO 15014G21KT 10SM CLR 31/16 A2986 RMK AO2
KCOM 250334Z AUTO 15016G20KT 10SM CLR 31/16 A2986 RMK AO2
KCOM 250314Z AUTO 15014KT 10SM CLR 32/16 A2985 RMK AO2
KCOM 250256Z AUTO 14013G17KT 10SM CLR 32/15 A2984 RMK AO2
KCOM 250234Z AUTO 15013G17KT 10SM CLR 33/15 A2983 RMK AO2
KCOM 250214Z AUTO 15014G19KT 10SM CLR 33/14 A2982 RMK AO2
KCOM 250154Z AUTO 16017G21KT 10SM CLR 34/14 A2980 RMK AO2
KCOM 250134Z AUTO 16016G21KT 10SM CLR 34/14 A2979 RMK AO2
KCOM 250114Z AUTO 16016G20KT 10SM CLR 35/14 A2978 RMK AO2
KCOM 250055Z AUTO 16021G26KT 10SM CLR 36/14 A2977 RMK AO2
KCOM 250034Z AUTO 17021G26KT 10SM CLR 37/13 A2976 RMK AO2
KCOM 250014Z AUTO 17016G25KT 10SM CLR 38/13 A2976 RMK AO2
KCOM 242354Z AUTO 17020G25KT 10SM CLR 38/12 A2976 RMK AO2
KCOM 242336Z AUTO 17019G24KT 10SM CLR 39/13 A2976 RMK AO2
KCOM 242314Z AUTO 17015G26KT 10SM CLR 39/13 A2976 RMK AO2
KCOM 242254Z AUTO 17019G26KT 10SM CLR 39/13 A2976 RMK AO2
KCOM 242235Z AUTO 18015G27KT 10SM CLR 39/14 A2977 RMK AO2
KCOM 242214Z AUTO 17016G23KT 10SM CLR 40/13 A2977 RMK AO2
KCOM 242155Z AUTO 18017G23KT 10SM CLR 39/14 A2977 RMK AO2
KCOM 242134Z AUTO 18018G26KT 10SM CLR 40/14 A2978 RMK AO2
KCOM 242114Z AUTO 18018G25KT 10SM CLR 39/14 A2977 RMK AO2
KCOM 242056Z AUTO 17020G27KT 10SM CLR 39/15 A2977 RMK AO2
KCOM 242014Z AUTO 16017G22KT 10SM CLR 38/17 A2979 RMK AO2
KCOM 241954Z AUTO 17021G29KT 10SM CLR 38/17 A2980 RMK AO2
KCOM 241934Z AUTO 17018G29KT 10SM CLR 37/17 A2980 RMK AO2
KCOM 241914Z AUTO 16016G22KT 10SM CLR 37/18 A2981 RMK AO2
KCOM 241854Z AUTO 16017G26KT 10SM CLR 36/18 A2982 RMK AO2
KCOM 241834Z AUTO 16018G24KT 10SM CLR 36/18 A2983 RMK AO2
KCOM 241814Z AUTO 19017G27KT 10SM CLR 35/19 A2983 RMK AO2
KCOM 241756Z AUTO 19016G22KT 10SM CLR 34/19 A2983 RMK AO2
KCOM 241734Z AUTO 19012G25KT 10SM CLR 33/19 A2984 RMK AO2
KCOM 241714Z AUTO 17016G20KT 10SM CLR 33/20 A2984 RMK AO2
KCOM 241634Z AUTO 17017G22KT 10SM CLR 32/20 A2984 RMK AO2
KCOM 241614Z AUTO 18015G19KT 10SM CLR 32/20 A2984 RMK AO2
KCOM 241554Z AUTO 19015G22KT 10SM CLR 31/20 A2984 RMK AO2
KCOM 241514Z AUTO 19016G25KT 10SM CLR 29/20 A2983 RMK AO2
KCOM 241454Z AUTO 20017G24KT 10SM CLR 28/20 A2983 RMK AO2
KCOM 241434Z AUTO 20017G26KT 10SM CLR 28/20 A2983 RMK AO2
KCOM 241415Z AUTO 20015G27KT 10SM CLR 27/20 A2983 RMK AO2
KCOM 241354Z AUTO 20021G28KT 10SM CLR 27/20 A2983 RMK AO2
KCOM 241335Z AUTO 19019G25KT 10SM CLR 26/19 A2983 RMK AO2
KCOM 241314Z AUTO 20013G21KT 10SM CLR 26/20 A2983 RMK AO2
KCOM 241254Z AUTO 19015G20KT 10SM CLR 26/20 A2983 RMK AO2
KCOM 241234Z AUTO 19012KT 10SM CLR 25/20 A2981 RMK AO2
KCOM 241215Z AUTO 20013G18KT 10SM CLR 25/20 A2980 RMK AO2
KCOM 241156Z AUTO 20013G17KT 10SM CLR 25/20 A2980 RMK AO2
KCOM 241134Z AUTO 19011G17KT 10SM CLR 25/21 A2980 RMK AO2
KCOM 241114Z AUTO 19011KT 10SM CLR 25/21 A2979 RMK AO2
KCOM 241054Z AUTO 19014G20KT 10SM CLR 26/21 A2978 RMK AO2
KCOM 241034Z AUTO 19015KT 10SM CLR 26/21 A2977 RMK AO2
KCOM 241015Z AUTO 19014G19KT 10SM CLR 26/22 A2977 RMK AO2
KCOM 240955Z AUTO 19009G14KT 10SM CLR 25/22 A2977 RMK AO2
KCOM 240934Z AUTO 19007KT 10SM CLR 24/21 A2977 RMK AO2
KCOM 240915Z AUTO 19010KT 10SM CLR 24/19 A2977 RMK AO2
KCOM 240754Z AUTO 18013G20KT 10SM CLR 24/17 A2979 RMK AO2
KCOM 240735Z AUTO 17013G17KT 10SM CLR 26/17 A2980 RMK AO2
KCOM 240715Z AUTO 18015G19KT 10SM CLR 27/14 A2981 RMK AO2
KCOM 240654Z AUTO 19019G29KT 10SM CLR 30/11 A2979 RMK AO2
KCOM 240634Z AUTO 09022G35KT 10SM CLR 31/09 A2970 RMK AO2 LTG DSNT E AND SE
KCOM 240614Z AUTO 10023G32KT 10SM -DZ SCT055 SCT075 BKN120 28/12 A2970 RMK AO2 LTG DSNT E AND SE
KCOM 240554Z AUTO 04015KT 10SM -RA SCT070 SCT100 BKN120 27/14 A2983 RMK AO2 LTG DSNT NE AND SE
KCOM 240535Z AUTO 04007KT 10SM VCTS SCT120 29/14 A2986 RMK AO2 LTG DSNT E AND SE
KCOM 240514Z AUTO 05008KT 10SM CLR 27/15 A2986 RMK AO2 LTG DSNT N THRU SE
KCOM 240454Z AUTO 32011G28KT 10SM VCTS SCT055 SCT070 SCT075 27/14 A2984 RMK AO2 LTG DSNT ALQS
KCOM 240434Z AUTO 06019KT 10SM -VCTSRA SCT055 SCT070 OVC100 28/15 A2977 RMK AO2 LTG DSNT ALQS
KCOM 240414Z AUTO 27022G27KT 10SM -TSRA OVC100 29/11 A2984 RMK AO2 LTG DSNT ALQS
KCOM 240355Z AUTO 29007G16KT 10SM TSRA SCT041 SCT055 OVC100 23/16 A2984 RMK AO2 LTG DSNT ALQS
KCOM 240334Z AUTO 25014G26KT 10SM TSRA SCT041 SCT055 BKN070 22/17 A2985 RMK AO2 LTG DSNT ALQS
KCOM 240314Z AUTO 26023G30KT 10SM -TSRA BKN065 BKN090 27/14 A2986 RMK AO2 LTG DSNT ALQS
KCOM 240254Z AUTO 22021G34KT 10SM VCTS SCT090 34/18 A2980 RMK AO2 LTG DSNT SW THRU N
KCOM 240234Z AUTO 16016G21KT 10SM CLR 34/17 A2973 RMK AO2 LTG DSNT W THRU N
KCOM 240215Z AUTO 15017KT 10SM CLR 35/17 A2969 RMK AO2 LTG DSNT W AND NW
KCOM 240154Z AUTO 14013G18KT 10SM CLR 36/17 A2968 RMK AO2 LTG DSNT W THRU N
KCOM 240134Z AUTO 15011KT 10SM CLR 36/16 A2969 RMK AO2 LTG DSNT N AND NW
KCOM 240114Z AUTO 15015G19KT 10SM CLR 37/16 A2969 RMK AO2 LTG DSNT N
KCOM 240056Z AUTO 15013G17KT 10SM CLR 37/16 A2968 RMK AO2 LTG DSNT N AND NW
KCOM 240035Z AUTO 15015G20KT 10SM CLR 37/16 A2967 RMK AO2
KCOM 240015Z AUTO 15015KT 10SM CLR 39/16 A2968 RMK AO2
KCOM 232354Z AUTO 14013G19KT 10SM CLR 39/16 A2969 RMK AO2
KCOM 232334Z AUTO 17013G21KT 10SM CLR 40/16 A2969 RMK AO2
KCOM 232314Z AUTO 18015G21KT 10SM CLR 40/16 A2969 RMK AO2
KCOM 232254Z AUTO 15013G18KT 10SM CLR 40/16 A2970 RMK AO2
KCOM 232234Z AUTO 19010G17KT 10SM CLR 40/16 A2970 RMK AO2
KCOM 232215Z AUTO 17014G19KT 10SM CLR 40/16 A2970 RMK AO2
KCOM 232154Z AUTO 15013G19KT 10SM CLR 40/16 A2971 RMK AO2
KCOM 232135Z AUTO 17011G20KT 10SM CLR 40/17 A2972 RMK AO2
KCOM 232114Z AUTO 17014G20KT 10SM CLR 39/17 A2973 RMK AO2
KCOM 232056Z AUTO 16012G21KT 10SM SCT070 39/17 A2973 RMK AO2
KCOM 232036Z AUTO 15012G25KT 10SM CLR 39/18 A2973 RMK AO2
KCOM 232014Z AUTO 19019G24KT 10SM CLR 38/18 A2974 RMK AO2
KCOM 231954Z AUTO 19017G26KT 10SM CLR 38/18 A2975 RMK AO2
KCOM 231914Z AUTO 17015G21KT 10SM CLR 37/18 A2977 RMK AO2
KCOM 231854Z AUTO 19016G23KT 10SM CLR 37/18 A2978 RMK AO2
KCOM 231816Z AUTO 18015G21KT 10SM CLR 36/18 A2980 RMK AO2